createdAt,value
2022-12-13T00:03:29.350Z,45.12
2022-12-13T00:08:33.109Z,44.20
2022-12-13T00:13:38.587Z,48.83
2022-12-13T00:18:42.363Z,41.83
2022-12-13T00:23:46.972Z,36.13
2022-12-13T00:28:52.958Z,44.20
2022-12-13T00:33:56.637Z,39.42
2022-12-13T00:39:03.169Z,46.13
2022-12-13T00:44:08.221Z,39.63
2022-12-13T00:49:12.994Z,43.70
2022-12-13T00:54:17.047Z,45.50
2022-12-13T00:59:22.397Z,36.33
2022-12-13T01:04:26.123Z,44.40
2022-12-13T01:09:31.117Z,43.50
2022-12-13T01:14:37.919Z,37.83
2022-12-13T01:19:41.664Z,44.28
2022-12-13T01:24:45.715Z,46.85
2022-12-13T01:29:50.739Z,47.67
2022-12-13T01:34:54.455Z,45.90
2022-12-13T01:39:58.439Z,40.88
2022-12-13T01:45:24.086Z,49.33
2022-12-13T01:50:32.539Z,42.97
2022-12-13T01:55:41.289Z,47.72
2022-12-13T02:00:48.847Z,51.15
2022-12-13T02:06:00.552Z,45.03
2022-12-13T02:11:05.482Z,45.85
2022-12-13T02:16:23.345Z,43.03
2022-12-13T02:21:34.630Z,53.17
2022-12-13T02:26:55.869Z,46.03
2022-12-13T02:32:06.505Z,44.28
2022-12-13T02:37:19.121Z,55.00
2022-12-13T02:42:27.100Z,45.28
2022-12-13T02:47:34.580Z,55.72
2022-12-13T02:52:40.538Z,48.87
2022-12-13T02:57:46.535Z,46.95
2022-12-13T03:03:02.899Z,51.45
2022-12-13T03:08:21.213Z,42.97
2022-12-13T03:13:38.515Z,47.55
2022-12-13T03:18:45.365Z,52.80
2022-12-13T03:23:49.128Z,46.23
2022-12-13T03:28:53.990Z,45.83
2022-12-13T03:33:59.076Z,43.30
2022-12-13T03:39:02.823Z,52.88
2022-12-13T03:44:08.627Z,46.90
2022-12-13T03:49:17.070Z,47.20
2022-12-13T03:54:21.178Z,51.90
2022-12-13T03:59:24.851Z,45.10
2022-12-13T04:04:30.005Z,51.58
2022-12-13T04:09:33.858Z,46.92
2022-12-13T04:14:37.595Z,53.03
2022-12-13T04:19:42.598Z,49.53
2022-12-13T04:24:46.323Z,46.22
2022-12-13T04:29:50.025Z,44.75
2022-12-13T04:35:01.037Z,53.83
2022-12-13T04:40:06.420Z,50.50
2022-12-13T04:45:16.180Z,41.90
2022-12-13T04:50:21.443Z,58.92
2022-12-13T04:55:25.155Z,53.15
2022-12-13T05:00:28.887Z,50.67
2022-12-13T05:05:34.102Z,46.25
2022-12-13T05:10:38.674Z,46.15
2022-12-13T05:15:42.436Z,52.58
2022-12-13T05:20:47.641Z,51.25
2022-12-13T05:25:51.816Z,50.88
2022-12-13T05:30:57.688Z,49.50
2022-12-13T05:36:02.783Z,48.45
2022-12-13T05:41:07.388Z,51.85
2022-12-13T05:46:11.944Z,55.00
2022-12-13T05:51:17.016Z,57.67
2022-12-13T05:56:22.328Z,50.47
2022-12-13T06:01:26.791Z,48.67
2022-12-13T06:06:31.834Z,49.40
2022-12-13T06:11:35.588Z,48.08
2022-12-13T06:16:47.362Z,47.03
2022-12-13T06:21:54.831Z,52.10
2022-12-13T06:27:00.086Z,48.42
2022-12-13T06:32:04.602Z,45.42
2022-12-13T06:37:13.503Z,44.38
2022-12-13T06:42:22.244Z,52.67
2022-12-13T06:47:32.094Z,44.60
2022-12-13T06:52:37.933Z,51.17
2022-12-13T06:57:43.877Z,48.58
2022-12-13T07:02:53.253Z,55.65
2022-12-13T07:07:58.826Z,52.92
2022-12-13T07:13:03.712Z,55.58
2022-12-13T07:18:07.442Z,55.28
2022-12-13T07:23:12.649Z,51.53
2022-12-13T07:28:16.333Z,56.35
2022-12-13T07:33:22.087Z,56.83
2022-12-13T07:38:27.998Z,61.97
2022-12-13T07:43:31.941Z,58.55
2022-12-13T07:48:35.942Z,53.85
2022-12-13T07:53:41.527Z,55.10
2022-12-13T07:58:47.397Z,49.17
2022-12-13T08:03:51.277Z,66.93
2022-12-13T08:08:58.190Z,62.95
2022-12-13T08:14:02.059Z,53.13
2022-12-13T08:19:05.845Z,52.15
2022-12-13T08:24:15.634Z,63.72
2022-12-13T08:29:23.372Z,59.63
2022-12-13T08:34:37.856Z,56.67
2022-12-13T08:39:42.949Z,55.80
2022-12-13T08:44:50.683Z,62.80
2022-12-13T08:50:02.353Z,58.13
2022-12-13T08:55:09.783Z,63.50
2022-12-13T09:00:16.140Z,58.65
2022-12-13T09:05:33.014Z,67.75
2022-12-13T09:10:40.017Z,65.93
2022-12-13T09:15:45.712Z,64.12
2022-12-13T09:20:50.209Z,61.25
2022-12-13T09:26:05.182Z,60.15
2022-12-13T09:31:10.974Z,58.33
2022-12-13T09:36:16.894Z,60.35
2022-12-13T09:41:29.007Z,66.85
2022-12-13T09:46:44.344Z,59.50
2022-12-13T09:52:10.035Z,63.45
2022-12-13T09:57:32.302Z,61.08
2022-12-13T10:02:45.411Z,59.63
2022-12-13T10:07:49.891Z,65.12
2022-12-13T10:12:59.819Z,56.90
2022-12-13T10:18:05.503Z,57.05
2022-12-13T10:23:33.421Z,63.20
2022-12-13T10:28:35.086Z,60.33
2022-12-13T10:33:43.358Z,60.55
2022-12-13T10:38:47.736Z,64.37
2022-12-13T10:44:16.014Z,60.50
2022-12-13T10:49:22.657Z,52.00
2022-12-13T10:54:29.812Z,56.42
2022-12-13T10:59:46.523Z,48.20
2022-12-13T11:04:50.248Z,52.92
2022-12-13T11:09:54.029Z,49.38
2022-12-13T11:15:01.864Z,58.70
2022-12-13T11:20:16.279Z,51.20
2022-12-13T11:25:24.309Z,55.88
2022-12-13T11:35:57.886Z,46.42
2022-12-13T11:41:11.385Z,56.85
2022-12-13T11:46:20.897Z,49.50
2022-12-13T11:51:29.105Z,49.45
2022-12-13T11:56:38.718Z,55.00
2022-12-13T12:01:51.779Z,50.08
2022-12-13T12:07:12.181Z,50.78
2022-12-13T12:12:29.204Z,55.50
2022-12-13T12:17:42.007Z,53.03
2022-12-13T12:22:56.213Z,58.00
2022-12-13T12:28:10.016Z,58.58
2022-12-13T12:33:27.455Z,55.97
2022-12-13T12:38:52.784Z,57.83
2022-12-13T12:44:06.686Z,53.70
2022-12-13T12:49:49.850Z,66.12
2022-12-13T12:55:03.610Z,60.38
2022-12-13T13:00:13.227Z,61.83
2022-12-13T13:05:23.163Z,66.97
2022-12-13T13:10:27.594Z,57.40
2022-12-13T13:15:57.822Z,59.10
2022-12-13T13:21:34.719Z,56.10
2022-12-13T13:26:40.151Z,48.20
2022-12-13T13:32:01.572Z,54.95
2022-12-13T13:37:29.132Z,53.80
2022-12-13T13:42:34.094Z,58.17
2022-12-13T13:47:40.819Z,51.35
2022-12-13T13:52:58.937Z,60.38
2022-12-13T13:58:38.993Z,53.22
2022-12-13T14:04:22.510Z,52.17
2022-12-13T14:10:04.727Z,54.88
2022-12-13T14:16:06.492Z,51.03
2022-12-13T14:21:20.251Z,48.33
2022-12-13T14:26:41.208Z,49.95
2022-12-13T14:31:47.825Z,51.78
2022-12-13T14:36:59.941Z,43.35
2022-12-13T14:42:23.738Z,44.97
2022-12-13T14:47:28.316Z,45.92
2022-12-13T14:52:39.979Z,45.70
2022-12-13T14:57:54.120Z,46.78
2022-12-13T15:03:00.511Z,44.63
2022-12-13T15:08:10.864Z,43.78
2022-12-13T15:13:27.030Z,42.70
2022-12-13T15:18:34.939Z,48.55
2022-12-13T15:23:49.100Z,44.70
2022-12-13T15:29:10.185Z,45.63
2022-12-13T15:34:35.147Z,45.55
2022-12-13T15:39:41.032Z,45.03
2022-12-13T15:44:56.055Z,51.22
2022-12-13T15:55:28.396Z,49.83
2022-12-13T16:00:36.193Z,47.20
2022-12-13T16:05:47.274Z,34.63
2022-12-13T16:10:53.667Z,40.00
2022-12-13T16:16:08.697Z,43.30
2022-12-13T16:21:14.227Z,46.33
2022-12-13T16:26:24.304Z,43.30
2022-12-13T16:31:35.549Z,50.30
2022-12-13T16:36:39.894Z,48.35
2022-12-13T16:41:45.839Z,44.15
2022-12-13T16:47:11.689Z,48.55
2022-12-13T16:52:15.056Z,44.75
2022-12-13T16:57:18.782Z,47.83
2022-12-13T17:02:23.967Z,48.80
2022-12-13T17:07:27.993Z,45.75
2022-12-13T17:12:31.954Z,48.33
2022-12-13T17:17:39.006Z,46.28
2022-12-13T17:22:43.563Z,31.63
2022-12-13T17:27:47.388Z,44.78
2022-12-13T17:32:52.517Z,56.03
2022-12-13T17:37:56.399Z,42.90
2022-12-13T17:43:00.702Z,49.92
2022-12-13T17:48:06.811Z,45.42
2022-12-13T17:53:10.879Z,44.45
2022-12-13T17:58:14.586Z,47.28
2022-12-13T18:03:20.117Z,38.88
2022-12-13T18:08:23.942Z,46.60
2022-12-13T18:13:28.101Z,42.88
2022-12-13T18:18:34.918Z,40.08
2022-12-13T18:23:39.547Z,39.97
2022-12-13T18:28:43.776Z,38.63
2022-12-13T18:33:49.643Z,40.12
2022-12-13T18:38:54.040Z,42.60
2022-12-13T18:44:00.304Z,43.85
2022-12-13T18:49:06.705Z,44.80
2022-12-13T18:54:10.856Z,37.85
2022-12-13T18:59:14.597Z,41.67
2022-12-13T19:04:19.676Z,37.17
2022-12-13T19:09:23.706Z,38.20
2022-12-13T19:14:28.209Z,39.92
2022-12-13T19:19:33.530Z,41.33
2022-12-13T19:24:37.255Z,41.08
2022-12-13T19:29:41.198Z,41.35
2022-12-13T19:34:46.455Z,42.88
2022-12-13T19:39:50.118Z,40.88
2022-12-13T19:44:54.003Z,44.75
2022-12-13T19:49:59.103Z,48.63
2022-12-13T19:55:02.786Z,43.30
2022-12-13T20:00:07.930Z,41.85
2022-12-13T20:05:12.797Z,47.67
2022-12-13T20:10:16.498Z,41.45
2022-12-13T20:15:22.147Z,41.95
2022-12-13T20:20:40.913Z,40.08
2022-12-13T20:26:00.496Z,41.85
2022-12-13T20:31:06.858Z,35.60
2022-12-13T20:36:24.059Z,38.95
2022-12-13T20:41:29.955Z,37.13
2022-12-13T20:46:33.749Z,37.80
2022-12-13T20:51:41.510Z,42.47
2022-12-13T20:56:45.272Z,29.10
2022-12-13T21:01:49.500Z,39.90
2022-12-13T21:06:54.719Z,36.40
2022-12-13T21:11:58.965Z,42.10
2022-12-13T21:17:04.640Z,43.00
2022-12-13T21:22:09.680Z,39.85
2022-12-13T21:27:13.532Z,38.17
2022-12-13T21:32:17.243Z,41.20
2022-12-13T21:37:22.388Z,36.75
2022-12-13T21:42:26.139Z,39.55
2022-12-13T21:47:30.030Z,41.67
2022-12-13T21:52:35.175Z,42.40
2022-12-13T21:57:56.727Z,41.78
2022-12-13T22:03:00.665Z,38.72
2022-12-13T22:08:06.482Z,42.20
2022-12-13T22:13:10.217Z,34.08
2022-12-13T22:18:14.126Z,36.88
2022-12-13T22:23:19.193Z,40.95
2022-12-13T22:28:22.951Z,37.90
2022-12-13T22:33:26.667Z,38.53
2022-12-13T22:38:31.752Z,32.65
2022-12-13T22:43:35.987Z,37.60
2022-12-13T22:48:40.313Z,30.52
2022-12-13T22:53:47.541Z,31.73
2022-12-13T22:58:55.070Z,34.70
2022-12-13T23:03:59.917Z,30.45
2022-12-13T23:09:07.308Z,28.98
2022-12-13T23:14:15.365Z,31.08
2022-12-13T23:24:44.131Z,30.27
2022-12-13T23:29:47.911Z,28.00
2022-12-13T23:34:51.799Z,28.33
2022-12-13T23:39:56.874Z,28.08
2022-12-13T23:45:00.613Z,31.90
2022-12-13T23:50:06.035Z,27.10
2022-12-13T23:55:11.757Z,27.27
